createdAt,value
2019-06-10T00:00:57.297Z,96.89
2019-06-10T00:01:57.424Z,97.56
2019-06-10T00:02:57.502Z,97.47
2019-06-10T00:03:57.724Z,97.47
2019-06-10T00:04:56.187Z,97.18
2019-06-10T00:05:56.096Z,96.89
2019-06-10T00:06:56.013Z,96.70
2019-06-10T00:07:55.930Z,96.89
2019-06-10T00:08:56.062Z,97.09
2019-06-10T00:09:56.176Z,96.80
2019-06-10T00:10:56.209Z,96.51
2019-06-10T00:11:56.299Z,96.22
2019-06-10T00:12:55.544Z,96.70
2019-06-10T00:13:56.537Z,96.99
2019-06-10T00:14:56.627Z,96.42
2019-06-10T00:15:55.271Z,96.80
2019-06-10T00:16:55.188Z,96.94
2019-06-10T00:18:16.192Z,97.52
2019-06-10T00:18:54.997Z,98.00
2019-06-10T00:19:54.911Z,97.90
2019-06-10T00:20:54.839Z,98.00
2019-06-10T00:21:54.740Z,98.10
2019-06-10T00:22:54.664Z,98.19
2019-06-10T00:23:54.571Z,98.19
2019-06-10T00:24:54.497Z,97.80
2019-06-10T00:25:54.411Z,98.10
2019-06-10T00:26:54.316Z,98.57
2019-06-10T00:27:54.247Z,98.76
2019-06-10T00:28:54.151Z,98.28
2019-06-10T00:29:54.094Z,99.05
2019-06-10T00:30:53.983Z,99.05
2019-06-10T00:31:53.889Z,98.62
2019-06-10T00:32:53.816Z,99.34
2019-06-10T00:33:53.734Z,98.76
2019-06-10T00:34:53.641Z,98.96
2019-06-10T00:35:53.567Z,98.76
2019-06-10T00:36:53.461Z,99.15
2019-06-10T00:37:53.394Z,99.53
2019-06-10T00:38:53.301Z,99.34
2019-06-10T00:39:53.218Z,99.43
2019-06-10T00:40:53.133Z,99.24
2019-06-10T00:41:53.041Z,99.99
2019-06-10T00:42:52.953Z,99.15
2019-06-10T00:43:52.895Z,99.53
2019-06-10T00:44:52.783Z,99.53
2019-06-10T00:45:52.702Z,99.53
2019-06-10T00:46:52.623Z,99.72
2019-06-10T00:48:07.605Z,99.53
2019-06-10T00:48:52.458Z,99.24
2019-06-10T00:49:52.351Z,98.67
2019-06-10T00:50:52.280Z,98.76
2019-06-10T00:51:52.177Z,98.96
2019-06-10T00:52:52.101Z,98.96
2019-06-10T00:53:52.009Z,98.86
2019-06-10T00:54:52.041Z,98.38
2019-06-10T00:55:51.851Z,98.38
2019-06-10T00:56:52.031Z,98.19
2019-06-10T00:57:51.667Z,98.10
2019-06-10T00:58:51.603Z,98.19
2019-06-10T00:59:51.521Z,98.38
2019-06-10T01:00:51.807Z,98.10
2019-06-10T01:01:51.336Z,98.19
2019-06-10T01:02:51.811Z,98.96
2019-06-10T01:03:51.154Z,98.76
2019-06-10T01:04:51.438Z,98.76
2019-06-10T01:05:51.062Z,98.67
2019-06-10T01:06:51.542Z,99.34
2019-06-10T01:07:50.954Z,99.15
2019-06-10T01:08:51.222Z,98.96
2019-06-10T01:09:51.734Z,99.05
2019-06-10T01:10:52.246Z,99.43
2019-06-10T01:11:51.898Z,99.15
2019-06-10T01:12:51.335Z,98.71
2019-06-10T01:13:50.806Z,99.34
2019-06-10T01:14:51.656Z,98.96
2019-06-10T01:15:51.147Z,99.10
2019-06-10T01:16:50.645Z,98.43
2019-06-10T01:17:51.101Z,98.14
2019-06-10T01:18:53.195Z,98.52
2019-06-10T01:19:50.894Z,98.33
2019-06-10T01:20:51.756Z,98.14
2019-06-10T01:21:51.210Z,98.62
2019-06-10T01:22:51.551Z,98.43
2019-06-10T01:23:51.042Z,98.81
2019-06-10T01:24:51.070Z,99.10
2019-06-10T01:25:51.065Z,99.10
2019-06-10T01:26:50.548Z,99.87
2019-06-10T01:27:51.363Z,99.67
2019-06-10T01:28:51.447Z,99.99
2019-06-10T01:29:51.033Z,99.99
2019-06-10T01:30:48.898Z,99.99
2019-06-10T01:31:51.052Z,99.99
2019-06-10T01:32:50.673Z,99.58
2019-06-10T01:33:48.602Z,99.87
2019-06-10T01:34:50.642Z,99.87
2019-06-10T01:35:48.439Z,99.87
2019-06-10T01:36:50.773Z,99.48
2019-06-10T01:37:48.263Z,99.99
2019-06-10T01:38:48.187Z,99.87
2019-06-10T01:39:48.086Z,99.96
2019-06-10T01:40:48.016Z,99.99
2019-06-10T01:41:47.918Z,99.99
2019-06-10T01:42:47.865Z,99.99
2019-06-10T01:43:47.754Z,99.96
2019-06-10T01:44:47.651Z,99.99
2019-06-10T01:45:47.581Z,99.96
2019-06-10T01:46:47.489Z,99.99
2019-06-10T01:47:47.394Z,99.99
2019-06-10T01:48:48.480Z,99.99
2019-06-10T01:49:47.240Z,99.96
2019-06-10T01:50:47.139Z,99.99
2019-06-10T01:51:47.055Z,99.99
2019-06-10T01:52:47.051Z,99.99
2019-06-10T01:53:46.895Z,99.67
2019-06-10T01:54:46.801Z,99.67
2019-06-10T01:55:46.718Z,99.99
2019-06-10T01:56:46.633Z,99.58
2019-06-10T01:57:46.541Z,99.99
2019-06-10T01:58:46.455Z,99.99
2019-06-10T01:59:46.375Z,99.99
2019-06-10T02:00:46.335Z,99.99
2019-06-10T02:01:46.203Z,99.99
2019-06-10T02:02:46.153Z,99.99
2019-06-10T02:03:46.033Z,99.99
2019-06-10T02:04:45.944Z,99.99
2019-06-10T02:05:45.861Z,99.99
2019-06-10T02:06:45.765Z,99.99
2019-06-10T02:07:45.683Z,99.99
2019-06-10T02:08:45.609Z,99.99
2019-06-10T02:09:45.513Z,99.99
2019-06-10T02:10:45.441Z,99.99
2019-06-10T02:11:45.341Z,99.99
2019-06-10T02:12:45.257Z,99.99
2019-06-10T02:13:45.162Z,99.99
2019-06-10T02:14:45.087Z,99.99
2019-06-10T02:15:44.997Z,99.99
2019-06-10T02:16:44.917Z,99.99
2019-06-10T02:17:44.853Z,99.99
2019-06-10T02:18:56.810Z,99.99
2019-06-10T02:19:44.661Z,99.99
2019-06-10T02:20:44.569Z,99.99
2019-06-10T02:21:44.497Z,99.99
2019-06-10T02:22:44.414Z,99.96
2019-06-10T02:23:44.319Z,99.96
2019-06-10T02:24:44.235Z,99.96
2019-06-10T02:25:44.149Z,99.58
2019-06-10T02:26:44.058Z,99.29
2019-06-10T02:27:43.977Z,99.00
2019-06-10T02:28:43.884Z,99.77
2019-06-10T02:29:43.792Z,99.99
2019-06-10T02:30:50.799Z,99.99
2019-06-10T02:31:43.847Z,99.99
2019-06-10T02:32:43.538Z,99.99
2019-06-10T02:33:43.454Z,99.99
2019-06-10T02:35:01.328Z,99.99
2019-06-10T02:35:48.858Z,99.99
2019-06-10T02:36:44.573Z,99.99
2019-06-10T02:37:44.394Z,99.99
2019-06-10T02:38:44.477Z,99.99
2019-06-10T02:39:43.934Z,99.99
2019-06-10T02:40:43.526Z,99.99
2019-06-10T02:41:44.623Z,99.99
2019-06-10T02:42:43.630Z,99.99
2019-06-10T02:43:44.096Z,99.99
2019-06-10T02:44:44.525Z,99.99
2019-06-10T02:45:44.502Z,99.99
2019-06-10T02:46:43.976Z,99.99
2019-06-10T02:47:44.330Z,99.99
2019-06-10T02:48:43.622Z,99.99
2019-06-10T02:49:55.763Z,99.99
2019-06-10T02:50:44.149Z,99.99
2019-06-10T02:51:43.639Z,99.99
2019-06-10T02:52:44.420Z,99.99
2019-06-10T02:53:43.353Z,99.99
2019-06-10T02:54:43.864Z,99.99
2019-06-10T02:55:43.437Z,99.99
2019-06-10T02:56:44.149Z,99.99
2019-06-10T02:57:44.622Z,99.99
2019-06-10T02:58:44.948Z,99.99
2019-06-10T02:59:43.578Z,99.99
2019-06-10T03:00:48.058Z,99.99
2019-06-10T03:01:43.976Z,99.99
2019-06-10T03:02:44.554Z,99.99
2019-06-10T03:03:45.829Z,99.99
2019-06-10T03:04:43.320Z,99.99
2019-06-10T03:05:45.626Z,99.99
2019-06-10T03:06:44.714Z,99.99
2019-06-10T03:07:44.033Z,99.99
2019-06-10T03:08:43.415Z,99.99
2019-06-10T03:09:42.721Z,99.99
2019-06-10T03:10:44.007Z,99.99
2019-06-10T03:11:40.422Z,99.99
2019-06-10T03:12:42.268Z,99.99
2019-06-10T03:13:42.494Z,99.99
2019-06-10T03:14:42.151Z,99.99
2019-06-10T03:15:39.842Z,99.99
2019-06-10T03:16:42.188Z,99.99
2019-06-10T03:17:39.678Z,99.99
2019-06-10T03:18:39.606Z,99.99
2019-06-10T03:19:47.899Z,99.99
2019-06-10T03:20:39.423Z,99.99
2019-06-10T03:21:39.333Z,99.99
2019-06-10T03:22:39.247Z,99.99
2019-06-10T03:23:39.181Z,99.99
2019-06-10T03:24:39.087Z,99.99
2019-06-10T03:25:39.018Z,99.99
2019-06-10T03:26:38.903Z,99.99
2019-06-10T03:27:38.829Z,99.99
2019-06-10T03:28:38.729Z,99.99
2019-06-10T03:29:38.647Z,99.99
2019-06-10T03:30:49.708Z,99.99
2019-06-10T03:31:43.179Z,99.99
2019-06-10T03:32:42.780Z,99.99
2019-06-10T03:33:41.816Z,99.99
2019-06-10T03:34:45.887Z,99.99
2019-06-10T03:35:38.139Z,99.99
2019-06-10T03:36:38.043Z,99.99
2019-06-10T03:37:37.955Z,99.99
2019-06-10T03:38:37.871Z,99.99
2019-06-10T03:39:37.791Z,99.99
2019-06-10T03:40:37.715Z,99.99
2019-06-10T03:41:37.653Z,99.99
2019-06-10T03:42:37.533Z,99.99
2019-06-10T03:43:37.443Z,99.99
2019-06-10T03:44:37.415Z,99.99
2019-06-10T03:45:37.267Z,99.99
2019-06-10T03:46:37.193Z,99.99
2019-06-10T03:47:37.101Z,99.99
2019-06-10T03:48:37.076Z,99.99
2019-06-10T03:49:49.128Z,99.99
2019-06-10T03:50:36.841Z,99.99
2019-06-10T03:51:36.764Z,99.99
2019-06-10T03:52:36.681Z,99.99
2019-06-10T03:53:36.598Z,99.99
2019-06-10T03:54:36.525Z,99.99
2019-06-10T03:55:36.408Z,99.99
2019-06-10T03:56:36.328Z,99.99
2019-06-10T03:57:36.241Z,99.99
2019-06-10T03:58:36.172Z,99.99
2019-06-10T03:59:36.084Z,99.99
2019-06-10T04:00:36.999Z,99.99
2019-06-10T04:01:35.915Z,99.99
2019-06-10T04:02:35.880Z,99.99
2019-06-10T04:03:35.830Z,99.99
2019-06-10T04:04:35.645Z,99.99
2019-06-10T04:05:35.565Z,99.99
2019-06-10T04:06:35.492Z,99.99
2019-06-10T04:07:35.407Z,99.99
2019-06-10T04:08:35.315Z,99.99
2019-06-10T04:09:35.223Z,99.99
2019-06-10T04:10:35.125Z,99.99
2019-06-10T04:11:35.717Z,99.99
2019-06-10T04:12:34.956Z,99.99
2019-06-10T04:13:34.879Z,99.99
2019-06-10T04:14:34.804Z,99.99
2019-06-10T04:15:34.701Z,99.99
2019-06-10T04:16:34.623Z,99.99
2019-06-10T04:17:34.532Z,99.99
2019-06-10T04:18:34.444Z,99.99
2019-06-10T04:19:34.360Z,99.99
2019-06-10T04:20:34.286Z,99.99
2019-06-10T04:21:34.187Z,99.99
2019-06-10T04:22:34.101Z,99.99
2019-06-10T04:23:34.015Z,99.99
2019-06-10T04:24:33.934Z,99.99
2019-06-10T04:25:33.846Z,99.99
2019-06-10T04:26:33.766Z,99.99
2019-06-10T04:27:33.668Z,99.99
2019-06-10T04:28:33.872Z,99.99
2019-06-10T04:29:33.503Z,99.99
2019-06-10T04:30:33.414Z,99.99
2019-06-10T04:31:33.338Z,99.99
2019-06-10T04:32:33.240Z,99.99
2019-06-10T04:33:33.160Z,99.99
2019-06-10T04:34:33.467Z,99.99
2019-06-10T04:35:33.682Z,99.99
2019-06-10T04:36:33.454Z,99.99
2019-06-10T04:37:32.812Z,99.99
2019-06-10T04:38:33.063Z,99.99
2019-06-10T04:39:33.665Z,99.99
2019-06-10T04:40:32.966Z,99.99
2019-06-10T04:41:32.638Z,99.99
2019-06-10T04:42:33.005Z,99.99
2019-06-10T04:43:32.728Z,99.99
2019-06-10T04:44:32.960Z,99.99
2019-06-10T04:45:32.510Z,99.99
2019-06-10T04:46:32.555Z,99.99
2019-06-10T04:47:33.309Z,99.99
2019-06-10T04:48:32.612Z,99.99
2019-06-10T04:49:32.759Z,99.99
2019-06-10T04:50:41.925Z,99.99
2019-06-10T04:51:32.875Z,99.99
2019-06-10T04:52:32.866Z,99.99
2019-06-10T04:53:33.036Z,99.99
2019-06-10T04:54:33.313Z,99.99
2019-06-10T04:55:32.657Z,99.99
2019-06-10T04:56:33.411Z,99.99
2019-06-10T04:57:32.692Z,99.99
2019-06-10T04:58:33.288Z,99.99
2019-06-10T04:59:33.372Z,99.99
2019-06-10T05:00:33.029Z,99.99
2019-06-10T05:01:33.306Z,99.99
2019-06-10T05:02:32.949Z,99.99
2019-06-10T05:03:32.640Z,99.99
2019-06-10T05:04:32.759Z,99.91
2019-06-10T05:05:32.625Z,99.99
2019-06-10T05:06:32.606Z,99.53
2019-06-10T05:07:36.001Z,98.86
2019-06-10T05:08:30.157Z,99.34
2019-06-10T05:09:31.279Z,99.82
2019-06-10T05:10:30.023Z,99.73
2019-06-10T05:11:30.883Z,98.77
2019-06-10T05:12:29.826Z,98.00
2019-06-10T05:13:29.983Z,98.10
2019-06-10T05:14:30.934Z,97.95
2019-06-10T05:15:31.558Z,98.14
2019-06-10T05:16:32.166Z,98.43
2019-06-10T05:17:30.964Z,98.33
2019-06-10T05:18:30.307Z,97.38
2019-06-10T05:19:30.643Z,96.70
2019-06-10T05:20:46.856Z,96.13
2019-06-10T05:21:29.777Z,96.22
2019-06-10T05:22:30.608Z,96.61
2019-06-10T05:23:29.936Z,96.03
2019-06-10T05:24:30.154Z,95.65
2019-06-10T05:25:28.703Z,95.46
2019-06-10T05:26:29.242Z,95.55
2019-06-10T05:27:28.610Z,95.94
2019-06-10T05:28:28.717Z,96.03
2019-06-10T05:29:29.550Z,95.26
2019-06-10T05:30:29.510Z,95.36
2019-06-10T05:31:28.906Z,95.46
2019-06-10T05:32:29.032Z,95.07
2019-06-10T05:33:28.605Z,95.31
2019-06-10T05:34:28.785Z,95.31
2019-06-10T05:35:28.480Z,95.41
2019-06-10T05:36:29.858Z,96.08
2019-06-10T05:37:28.233Z,96.37
2019-06-10T05:38:29.104Z,96.08
2019-06-10T05:39:28.786Z,95.12
2019-06-10T05:40:27.658Z,94.74
2019-06-10T05:41:28.943Z,94.93
2019-06-10T05:42:28.186Z,94.64
2019-06-10T05:43:27.875Z,95.31
2019-06-10T05:44:28.471Z,95.31
2019-06-10T05:45:27.996Z,95.31
2019-06-10T05:46:28.229Z,95.12
2019-06-10T05:47:29.224Z,95.03
2019-06-10T05:48:26.750Z,95.31
2019-06-10T05:49:27.792Z,95.70
2019-06-10T05:50:26.810Z,95.12
2019-06-10T05:51:27.878Z,95.03
2019-06-10T05:52:27.539Z,93.97
2019-06-10T05:53:27.655Z,93.68
2019-06-10T05:54:27.507Z,94.07
2019-06-10T05:55:27.075Z,93.59
2019-06-10T05:56:27.166Z,93.49
2019-06-10T05:57:27.314Z,93.87
2019-06-10T05:58:26.519Z,93.49
2019-06-10T05:59:25.891Z,94.16
2019-06-10T06:00:26.085Z,94.69
2019-06-10T06:01:25.700Z,94.49
2019-06-10T06:02:25.800Z,94.40
2019-06-10T06:03:25.758Z,93.96
2019-06-10T06:04:26.392Z,93.19
2019-06-10T06:05:25.987Z,93.29
2019-06-10T06:06:25.220Z,92.81
2019-06-10T06:07:25.144Z,92.38
2019-06-10T06:08:25.155Z,92.57
2019-06-10T06:09:25.173Z,91.32
2019-06-10T06:10:25.140Z,90.41
2019-06-10T06:11:25.252Z,90.59
2019-06-10T06:12:25.458Z,90.31
2019-06-10T06:13:25.354Z,90.12
2019-06-10T06:14:25.477Z,90.02
2019-06-10T06:15:25.437Z,91.03
2019-06-10T06:16:25.624Z,90.83
2019-06-10T06:17:24.302Z,90.26
2019-06-10T06:18:24.248Z,90.26
2019-06-10T06:19:24.126Z,90.83
2019-06-10T06:20:25.067Z,90.06
2019-06-10T06:21:30.123Z,89.58
2019-06-10T06:22:23.868Z,89.68
2019-06-10T06:23:23.781Z,89.20
2019-06-10T06:24:23.718Z,89.01
2019-06-10T06:25:24.168Z,89.58
2019-06-10T06:26:24.003Z,88.96
2019-06-10T06:27:23.450Z,89.58
2019-06-10T06:28:23.392Z,89.87
2019-06-10T06:29:23.286Z,90.35
2019-06-10T06:30:23.219Z,89.97
2019-06-10T06:31:23.397Z,89.87
2019-06-10T06:32:23.587Z,89.97
2019-06-10T06:33:22.947Z,90.26
2019-06-10T06:34:22.872Z,90.06
2019-06-10T06:35:22.791Z,90.06
2019-06-10T06:36:22.904Z,90.93
2019-06-10T06:37:23.117Z,92.66
2019-06-10T06:38:22.559Z,92.57
2019-06-10T06:39:24.294Z,92.66
2019-06-10T06:40:23.120Z,93.33
2019-06-10T06:41:22.771Z,93.15
2019-06-10T06:42:22.885Z,93.33
2019-06-10T06:43:22.224Z,92.95
2019-06-10T06:44:23.398Z,92.76
2019-06-10T06:45:22.288Z,92.85
2019-06-10T06:46:23.384Z,92.76
2019-06-10T06:47:22.685Z,92.08
2019-06-10T06:48:22.716Z,91.84
2019-06-10T06:49:23.099Z,92.47
2019-06-10T06:50:25.421Z,92.18
2019-06-10T06:51:35.827Z,92.22
2019-06-10T06:52:38.889Z,91.80
2019-06-10T06:53:32.294Z,92.03
2019-06-10T06:54:22.980Z,92.03
2019-06-10T06:55:23.260Z,91.84
2019-06-10T06:56:23.020Z,90.69
2019-06-10T06:57:22.364Z,91.41
2019-06-10T06:58:23.054Z,91.21
2019-06-10T06:59:22.394Z,91.12
2019-06-10T07:00:40.896Z,89.96
2019-06-10T07:01:23.270Z,89.86
2019-06-10T07:02:22.574Z,89.00
2019-06-10T07:03:22.868Z,88.61
2019-06-10T07:04:20.353Z,89.09
2019-06-10T07:05:20.271Z,88.71
2019-06-10T07:06:22.775Z,88.13
2019-06-10T07:07:22.094Z,87.55
2019-06-10T07:08:20.010Z,87.70
2019-06-10T07:09:21.980Z,87.50
2019-06-10T07:10:19.867Z,87.88
2019-06-10T07:11:22.271Z,88.37
2019-06-10T07:12:19.694Z,87.02
2019-06-10T07:13:22.050Z,84.99
2019-06-10T07:14:19.523Z,85.67
2019-06-10T07:15:19.433Z,87.12
2019-06-10T07:16:19.347Z,86.82
2019-06-10T07:17:19.269Z,87.21
2019-06-10T07:18:19.181Z,86.25
2019-06-10T07:19:19.120Z,85.47
2019-06-10T07:20:19.025Z,85.03
2019-06-10T07:21:18.933Z,85.28
2019-06-10T07:22:18.846Z,87.16
2019-06-10T07:23:18.765Z,86.77
2019-06-10T07:24:18.681Z,86.68
2019-06-10T07:25:18.607Z,87.35
2019-06-10T07:26:18.516Z,86.48
2019-06-10T07:27:18.439Z,85.91
2019-06-10T07:28:18.355Z,86.62
2019-06-10T07:29:18.271Z,86.14
2019-06-10T07:30:18.200Z,85.52
2019-06-10T07:31:23.864Z,85.17
2019-06-10T07:32:18.034Z,85.08
2019-06-10T07:33:17.945Z,85.37
2019-06-10T07:34:17.847Z,84.21
2019-06-10T07:35:17.768Z,84.69
2019-06-10T07:36:17.693Z,84.31
2019-06-10T07:37:17.605Z,84.69
2019-06-10T07:38:17.542Z,85.27
2019-06-10T07:39:17.455Z,84.89
2019-06-10T07:40:17.365Z,85.46
2019-06-10T07:41:17.284Z,86.52
2019-06-10T07:42:17.205Z,86.33
2019-06-10T07:43:17.104Z,84.93
2019-06-10T07:44:17.024Z,85.60
2019-06-10T07:45:16.945Z,85.50
2019-06-10T07:46:16.886Z,85.74
2019-06-10T07:47:16.802Z,84.68
2019-06-10T07:48:16.721Z,84.74
2019-06-10T07:49:16.687Z,85.50
2019-06-10T07:50:16.533Z,84.54
2019-06-10T07:51:16.442Z,84.25
2019-06-10T07:52:19.655Z,85.22
2019-06-10T07:53:16.285Z,84.83
2019-06-10T07:54:16.216Z,83.96
2019-06-10T07:55:16.118Z,84.44
2019-06-10T07:56:16.055Z,84.74
2019-06-10T07:57:15.956Z,84.93
2019-06-10T07:58:15.875Z,84.74
2019-06-10T07:59:15.783Z,85.22
2019-06-10T08:00:15.716Z,84.16
2019-06-10T08:01:15.626Z,84.64
2019-06-10T08:02:15.561Z,83.29
2019-06-10T08:03:15.472Z,84.20
2019-06-10T08:04:15.394Z,84.58
2019-06-10T08:05:15.299Z,83.62
2019-06-10T08:06:15.209Z,84.10
2019-06-10T08:07:15.138Z,84.24
2019-06-10T08:08:15.043Z,83.95
2019-06-10T08:09:14.976Z,83.47
2019-06-10T08:10:14.891Z,84.30
2019-06-10T08:11:14.794Z,84.58
2019-06-10T08:12:14.776Z,85.16
2019-06-10T08:13:14.626Z,84.54
2019-06-10T08:14:14.546Z,85.12
2019-06-10T08:15:14.479Z,85.12
2019-06-10T08:16:14.386Z,85.12
2019-06-10T08:17:14.314Z,85.12
2019-06-10T08:18:14.240Z,85.26
2019-06-10T08:19:29.418Z,85.16
2019-06-10T08:20:14.055Z,84.00
2019-06-10T08:21:13.978Z,83.42
2019-06-10T08:22:29.878Z,83.33
2019-06-10T08:23:13.814Z,84.20
2019-06-10T08:24:13.732Z,84.30
2019-06-10T08:25:13.649Z,84.58
2019-06-10T08:26:13.578Z,84.78
2019-06-10T08:27:13.492Z,84.48
2019-06-10T08:28:13.569Z,84.48
2019-06-10T08:29:13.321Z,85.64
2019-06-10T08:30:22.284Z,85.26
2019-06-10T08:31:13.155Z,86.03
2019-06-10T08:32:13.279Z,85.26
2019-06-10T08:33:13.805Z,84.97
2019-06-10T08:34:13.401Z,85.16
2019-06-10T08:35:12.954Z,85.64
2019-06-10T08:36:13.588Z,85.59
2019-06-10T08:37:13.595Z,86.17
2019-06-10T08:38:12.573Z,85.01
2019-06-10T08:39:15.650Z,85.21
2019-06-10T08:40:12.521Z,85.49
2019-06-10T08:41:12.440Z,85.01
2019-06-10T08:42:12.488Z,84.24
2019-06-10T08:43:13.314Z,84.86
2019-06-10T08:44:12.516Z,85.35
2019-06-10T08:45:12.639Z,84.14
2019-06-10T08:46:13.125Z,84.05
2019-06-10T08:47:12.395Z,84.14
2019-06-10T08:48:13.276Z,85.69
2019-06-10T08:49:12.692Z,85.64
2019-06-10T08:50:12.948Z,85.55
2019-06-10T08:51:12.505Z,86.03
2019-06-10T08:52:12.846Z,85.64
2019-06-10T08:53:15.513Z,86.18
2019-06-10T08:54:12.774Z,87.09
2019-06-10T08:55:12.613Z,85.99
2019-06-10T08:56:13.170Z,85.99
2019-06-10T08:57:12.654Z,85.60
2019-06-10T08:58:12.895Z,86.66
2019-06-10T08:59:12.433Z,85.06
2019-06-10T09:00:14.898Z,85.16
2019-06-10T09:01:13.270Z,86.18
2019-06-10T09:02:12.470Z,86.18
2019-06-10T09:03:12.627Z,86.86
2019-06-10T09:04:10.443Z,87.24
2019-06-10T09:05:12.567Z,86.96
2019-06-10T09:06:10.281Z,87.15
2019-06-10T09:07:12.428Z,86.18
2019-06-10T09:08:10.114Z,86.86
2019-06-10T09:09:12.702Z,87.63
2019-06-10T09:10:09.971Z,88.02
2019-06-10T09:11:09.862Z,87.44
2019-06-10T09:12:26.052Z,86.86
2019-06-10T09:13:09.703Z,87.05
2019-06-10T09:14:09.645Z,87.34
2019-06-10T09:15:09.547Z,88.50
2019-06-10T09:16:15.677Z,88.02
2019-06-10T09:17:09.392Z,87.38
2019-06-10T09:18:09.297Z,86.75
2019-06-10T09:19:09.225Z,87.23
2019-06-10T09:20:09.143Z,84.33
2019-06-10T09:21:09.047Z,84.82
2019-06-10T09:22:08.973Z,84.63
2019-06-10T09:23:21.560Z,84.47
2019-06-10T09:24:08.807Z,82.93
2019-06-10T09:25:08.733Z,84.05
2019-06-10T09:26:08.653Z,84.57
2019-06-10T09:27:08.553Z,86.11
2019-06-10T09:28:08.474Z,83.22
2019-06-10T09:29:08.487Z,83.41
2019-06-10T09:30:08.334Z,83.12
2019-06-10T09:31:08.229Z,82.54
2019-06-10T09:32:08.154Z,83.18
2019-06-10T09:33:08.072Z,83.12
2019-06-10T09:34:08.003Z,84.09
2019-06-10T09:35:07.906Z,83.31
2019-06-10T09:36:07.827Z,82.83
2019-06-10T09:37:07.772Z,83.12
2019-06-10T09:38:07.665Z,83.12
2019-06-10T09:39:07.574Z,82.50
2019-06-10T09:40:07.495Z,83.31
2019-06-10T09:41:07.417Z,82.69
2019-06-10T09:42:07.429Z,83.22
2019-06-10T09:43:07.261Z,83.89
2019-06-10T09:44:07.173Z,83.66
2019-06-10T09:45:07.086Z,84.38
2019-06-10T09:46:07.016Z,84.67
2019-06-10T09:47:06.922Z,84.67
2019-06-10T09:48:06.845Z,84.38
2019-06-10T09:49:06.772Z,83.45
2019-06-10T09:50:06.679Z,83.64
2019-06-10T09:51:06.603Z,82.58
2019-06-10T09:52:06.514Z,83.16
2019-06-10T09:53:06.438Z,82.78
2019-06-10T09:54:06.978Z,82.54
2019-06-10T09:55:06.286Z,82.93
2019-06-10T09:56:06.194Z,84.19
2019-06-10T09:57:06.104Z,83.89
2019-06-10T09:58:06.028Z,84.67
2019-06-10T09:59:05.946Z,83.99
2019-06-10T10:00:05.866Z,83.41
2019-06-10T10:01:05.781Z,84.42
2019-06-10T10:02:07.253Z,83.03
2019-06-10T10:03:05.614Z,83.12
2019-06-10T10:04:05.554Z,83.61
2019-06-10T10:05:05.458Z,83.22
2019-06-10T10:06:15.733Z,82.97
2019-06-10T10:07:05.306Z,82.00
2019-06-10T10:08:05.412Z,82.97
2019-06-10T10:09:05.135Z,83.78
2019-06-10T10:10:05.525Z,84.08
2019-06-10T10:11:04.969Z,82.00
2019-06-10T10:12:04.892Z,81.81
2019-06-10T10:13:04.817Z,82.10
2019-06-10T10:14:08.604Z,83.06
2019-06-10T10:15:22.604Z,81.62
2019-06-10T10:16:04.565Z,81.71
2019-06-10T10:17:04.934Z,82.00
2019-06-10T10:18:04.404Z,81.81
2019-06-10T10:19:05.320Z,81.38
2019-06-10T10:20:04.233Z,81.29
2019-06-10T10:21:04.173Z,81.77
2019-06-10T10:22:04.075Z,81.96
2019-06-10T10:23:04.004Z,81.57
2019-06-10T10:24:08.148Z,82.15
2019-06-10T10:25:03.826Z,82.73
2019-06-10T10:26:03.747Z,82.98
2019-06-10T10:27:08.256Z,83.85
2019-06-10T10:28:03.582Z,83.70
2019-06-10T10:29:03.551Z,84.38
2019-06-10T10:30:04.022Z,84.03
2019-06-10T10:31:04.577Z,84.61
2019-06-10T10:32:03.767Z,83.64
2019-06-10T10:33:03.856Z,82.58
2019-06-10T10:34:03.096Z,82.20
2019-06-10T10:35:04.000Z,81.32
2019-06-10T10:36:03.125Z,81.04
2019-06-10T10:37:02.999Z,81.23
2019-06-10T10:38:03.851Z,80.98
2019-06-10T10:39:02.703Z,81.17
2019-06-10T10:40:03.260Z,79.62
2019-06-10T10:41:04.485Z,79.33
2019-06-10T10:42:03.848Z,79.08
2019-06-10T10:43:22.443Z,79.47
2019-06-10T10:44:03.077Z,79.47
2019-06-10T10:45:02.801Z,80.34
2019-06-10T10:46:05.586Z,79.24
2019-06-10T10:47:03.626Z,79.82
2019-06-10T10:48:02.530Z,78.66
2019-06-10T10:49:02.727Z,79.62
2019-06-10T10:50:02.835Z,80.11
2019-06-10T10:51:03.509Z,78.59
2019-06-10T10:52:02.685Z,79.47
2019-06-10T10:53:01.583Z,78.69
2019-06-10T10:54:21.204Z,79.60
2019-06-10T10:55:06.436Z,78.25
2019-06-10T10:56:02.304Z,78.54
2019-06-10T10:57:02.638Z,78.99
2019-06-10T10:58:03.196Z,77.92
2019-06-10T10:59:02.163Z,77.69
2019-06-10T11:00:03.221Z,78.27
2019-06-10T11:01:04.234Z,78.94
2019-06-10T11:02:02.395Z,78.85
2019-06-10T11:03:02.904Z,78.75
2019-06-10T11:04:03.670Z,81.07
2019-06-10T11:05:01.088Z,80.15
2019-06-10T11:06:01.221Z,80.82
2019-06-10T11:07:01.167Z,79.60
2019-06-10T11:08:00.333Z,78.92
2019-06-10T11:09:00.281Z,77.32
2019-06-10T11:10:00.174Z,77.65
2019-06-10T11:11:03.569Z,76.48
2019-06-10T11:12:00.017Z,75.32
2019-06-10T11:13:02.321Z,74.16
2019-06-10T11:13:59.866Z,76.48
2019-06-10T11:15:02.141Z,76.48
2019-06-10T11:15:59.686Z,75.77
2019-06-10T11:16:59.605Z,75.19
2019-06-10T11:17:59.519Z,75.15
2019-06-10T11:18:59.453Z,74.96
2019-06-10T11:19:59.367Z,75.77
2019-06-10T11:21:01.602Z,76.87
2019-06-10T11:21:59.200Z,77.16
2019-06-10T11:22:59.119Z,76.42
2019-06-10T11:24:02.189Z,73.71
2019-06-10T11:24:58.968Z,73.74
2019-06-10T11:25:59.055Z,73.94
2019-06-10T11:26:58.795Z,70.83
2019-06-10T11:27:58.725Z,72.09
2019-06-10T11:28:58.644Z,73.74
2019-06-10T11:29:59.186Z,73.03
2019-06-10T11:30:58.759Z,74.45
2019-06-10T11:31:58.923Z,73.58
2019-06-10T11:34:29.352Z,74.45
2019-06-10T11:35:21.727Z,74.51
2019-06-10T11:36:24.450Z,75.57
2019-06-10T11:37:23.114Z,75.13
2019-06-10T11:38:27.027Z,75.45
2019-06-10T11:39:22.424Z,74.87
2019-06-10T11:40:19.048Z,75.01
2019-06-10T11:41:17.426Z,74.52
2019-06-10T11:42:23.778Z,73.78
2019-06-10T11:43:15.894Z,73.58
2019-06-10T11:44:26.651Z,72.33
2019-06-10T11:45:11.625Z,72.45
2019-06-10T11:46:24.930Z,72.85
2019-06-10T11:47:22.982Z,72.17
2019-06-10T11:48:26.474Z,70.97
2019-06-10T11:49:23.750Z,72.00
2019-06-10T11:50:23.312Z,71.77
2019-06-10T11:51:23.253Z,73.42
2019-06-10T11:52:23.736Z,72.74
2019-06-10T11:53:28.716Z,72.71
2019-06-10T11:54:23.232Z,73.67
2019-06-10T11:55:19.521Z,74.35
2019-06-10T11:56:25.203Z,76.68
2019-06-10T11:57:28.277Z,75.42
2019-06-10T11:58:25.289Z,74.74
2019-06-10T11:59:13.509Z,76.19
2019-06-10T12:00:32.401Z,76.23
2019-06-10T12:01:26.358Z,75.94
2019-06-10T12:02:22.891Z,75.16
2019-06-10T12:03:17.463Z,74.68
2019-06-10T12:04:14.390Z,73.26
2019-06-10T12:05:20.536Z,73.16
2019-06-10T12:06:26.394Z,73.42
2019-06-10T12:07:22.229Z,74.00
2019-06-10T12:08:27.755Z,74.06
2019-06-10T12:09:18.834Z,75.67
2019-06-10T12:10:23.466Z,75.48
2019-06-10T12:11:17.109Z,75.77
2019-06-10T12:12:26.432Z,75.48
2019-06-10T12:13:13.386Z,75.57
2019-06-10T12:14:23.315Z,75.48
2019-06-10T12:15:17.232Z,77.22
2019-06-10T12:17:05.237Z,77.22
2019-06-10T12:17:29.756Z,77.12
2019-06-10T12:18:16.131Z,75.48
2019-06-10T12:19:15.011Z,75.90
2019-06-10T12:20:16.450Z,75.61
2019-06-10T12:21:23.485Z,75.57
2019-06-10T12:22:24.757Z,75.81
2019-06-10T12:23:22.088Z,75.23
2019-06-10T12:24:09.511Z,74.51
2019-06-10T12:25:25.084Z,74.60
2019-06-10T12:26:09.115Z,74.41
2019-06-10T12:27:22.231Z,73.93
2019-06-10T12:28:14.463Z,74.12
2019-06-10T12:29:16.412Z,73.86
2019-06-10T12:30:19.281Z,74.16
2019-06-10T12:31:06.827Z,73.86
2019-06-10T12:32:13.649Z,73.77
2019-06-10T12:33:21.154Z,74.45
2019-06-10T12:34:15.629Z,74.64
2019-06-10T12:35:13.605Z,75.51
2019-06-10T12:36:13.489Z,75.90
2019-06-10T12:37:16.875Z,76.48
2019-06-10T12:38:22.685Z,76.78
2019-06-10T12:39:15.695Z,77.12
2019-06-10T12:40:13.993Z,77.51
2019-06-10T12:41:23.208Z,77.42
2019-06-10T12:42:18.846Z,77.03
2019-06-10T12:43:19.162Z,78.38
2019-06-10T12:44:23.163Z,78.19
2019-06-10T12:45:19.280Z,78.48
2019-06-10T12:46:08.738Z,78.09
2019-06-10T12:47:18.165Z,78.58
2019-06-10T12:48:13.227Z,79.25
2019-06-10T12:49:12.818Z,77.42
2019-06-10T12:50:12.220Z,77.42
2019-06-10T12:51:14.232Z,77.22
2019-06-10T12:52:20.247Z,77.51
2019-06-10T12:53:18.413Z,77.28